Time;durP1;ratioP1;P1;durP2;ratioP2;P2;SDS_P1;SDS_P2;PMS_P1;PMS_P2;Temp;Humidity;BMP_temperature;BMP_pressure;BME280_temperature;BME280_humidity;BME280_pressure;Samples;Min_cycle;Max_cycle;Signal;HPM_P1;HPM_P2
2021/05/23 00:01:33;;;;;;;1.75;0.98;;;;;;;17.18;51.81;100208.17;1705530;82;20978;-46
2021/05/23 00:03:59;;;;;;;2.90;1.05;;;;;;;17.18;51.86;100210.86;1705824;82;21006;-43
2021/05/23 00:06:26;;;;;;;2.77;1.10;;;;;;;17.17;51.88;100207.83;1704314;83;21026;-43
2021/05/23 00:08:53;;;;;;;1.42;1.25;;;;;;;17.13;52.08;100202.34;1705473;82;21422;-44
2021/05/23 00:11:20;;;;;;;1.85;0.90;;;;;;;17.11;52.56;100210.20;1696488;82;21007;-41
2021/05/23 00:13:48;;;;;;;1.40;0.90;;;;;;;17.11;53.27;100204.82;1699581;82;21031;-44
2021/05/23 00:16:22;;;;;;;1.60;1.00;;;;;;;17.09;54.37;100203.63;1694499;83;21014;-42
2021/05/23 00:18:51;;;;;;;1.82;1.05;;;;;;;17.07;55.50;100209.14;1700740;83;21015;-47
2021/05/23 00:21:19;;;;;;;2.90;1.00;;;;;;;17.02;56.24;100210.05;1697116;82;21025;-41
2021/05/23 00:23:45;;;;;;;1.27;0.88;;;;;;;16.98;57.66;100215.34;1704120;83;21037;-43
2021/05/23 00:26:12;;;;;;;1.77;0.70;;;;;;;16.92;58.45;100217.25;1706027;82;21044;-42
2021/05/23 00:28:41;;;;;;;2.15;0.82;;;;;;;16.87;58.05;100211.42;1702277;82;21038;-42
2021/05/23 00:31:07;;;;;;;2.55;1.10;;;;;;;16.82;57.89;100213.17;1703395;82;21568;-43
2021/05/23 00:33:34;;;;;;;1.87;0.95;;;;;;;16.79;58.31;100203.19;1697462;82;20998;-43
2021/05/23 00:36:02;;;;;;;1.62;1.10;;;;;;;16.77;58.90;100214.05;1701741;82;21030;-40
2021/05/23 00:38:29;;;;;;;1.72;0.88;;;;;;;16.74;60.06;100208.94;1695319;83;21018;-41
2021/05/23 00:40:56;;;;;;;1.82;1.00;;;;;;;16.70;60.96;100212.88;1705552;82;21838;-43
2021/05/23 00:43:23;;;;;;;2.90;1.52;;;;;;;16.63;61.20;100209.90;1688049;84;20998;-44
2021/05/23 00:45:50;;;;;;;3.70;1.60;;;;;;;16.58;61.39;100213.48;1712367;82;21026;-43
2021/05/23 00:48:17;;;;;;;1.47;1.10;;;;;;;16.56;62.36;100221.34;1698807;83;21560;-43
2021/05/23 00:50:44;;;;;;;8.58;1.22;;;;;;;16.52;63.18;100222.09;1699839;83;21065;-44
2021/05/23 00:53:11;;;;;;;1.67;1.12;;;;;;;16.49;63.52;100215.62;1700226;82;21052;-44
2021/05/23 00:55:38;;;;;;;1.52;0.98;;;;;;;16.46;63.56;100214.56;1701761;82;21409;-41
2021/05/23 00:58:06;;;;;;;1.10;1.00;;;;;;;16.44;64.00;100213.34;1703331;82;21055;-44
2021/05/23 01:00:45;;;;;;;2.12;1.02;;;;;;;16.41;64.55;100206.88;1668170;84;21556;-44
2021/05/23 01:03:33;;;;;;;1.70;1.30;;;;;;;16.38;65.34;100211.70;1647876;85;21514;-44
2021/05/23 01:06:05;;;;;;;2.42;1.50;;;;;;;16.34;66.43;100214.28;1699629;82;21592;-44
2021/05/23 01:08:38;;;;;;;3.35;1.40;;;;;;;16.33;67.35;100217.94;1694503;82;21542;-43
2021/05/23 01:11:18;;;;;;;3.15;1.80;;;;;;;16.30;67.93;100227.13;1698694;82;21003;-44
2021/05/23 01:14:02;;;;;;;2.65;1.70;;;;;;;16.27;68.50;100226.55;1692505;82;20994;-44
2021/05/23 01:16:38;;;;;;;2.70;1.70;;;;;;;16.25;69.01;100236.59;1698480;82;21017;-46
2021/05/23 01:19:23;;;;;;;2.33;1.35;;;;;;;16.21;69.46;100237.36;1685323;83;21850;-45
2021/05/23 01:21:56;;;;;;;1.42;1.00;;;;;;;16.16;70.08;100236.90;1693474;82;21009;-44
2021/05/23 01:24:31;;;;;;;2.47;1.50;;;;;;;16.10;70.69;100246.35;1709893;82;21576;-44
2021/05/23 01:26:57;;;;;;;2.17;1.50;;;;;;;16.05;70.92;100251.73;1686398;83;21053;-49
2021/05/23 01:29:24;;;;;;;1.55;1.20;;;;;;;15.99;71.26;100260.69;1686810;83;21568;-41
2021/05/23 01:31:53;;;;;;;2.33;1.77;;;;;;;15.92;71.47;100264.02;1686986;83;21029;-45
2021/05/23 01:34:21;;;;;;;2.60;1.10;;;;;;;15.86;71.84;100268.59;1669324;83;21035;-44
2021/05/23 01:36:51;;;;;;;1.25;0.95;;;;;;;15.83;72.07;100264.81;1687445;83;21533;-48
2021/05/23 01:39:17;;;;;;;1.60;1.32;;;;;;;15.82;72.29;100265.78;1680390;83;21012;-48
2021/05/23 01:41:44;;;;;;;4.60;1.42;;;;;;;15.82;72.52;100272.50;1683060;83;21480;-47
2021/05/23 01:44:11;;;;;;;2.83;1.40;;;;;;;15.79;72.67;100275.80;1626300;85;21053;-46
2021/05/23 01:46:37;;;;;;;3.22;1.32;;;;;;;15.77;72.92;100275.11;1645394;85;21015;-43
2021/05/23 01:49:04;;;;;;;1.40;1.05;;;;;;;15.75;73.29;100274.37;1645394;85;21027;-43
2021/05/23 01:51:32;;;;;;;3.58;1.35;;;;;;;15.76;73.59;100278.75;1640168;84;21026;-45
2021/05/23 01:53:59;;;;;;;2.00;1.35;;;;;;;15.78;73.81;100279.98;1640147;85;21094;-44
2021/05/23 01:56:26;;;;;;;1.90;1.30;;;;;;;15.78;73.94;100284.86;1678545;83;21018;-43
2021/05/23 01:58:53;;;;;;;2.25;1.40;;;;;;;15.77;74.20;100289.01;1677246;83;21088;-45
2021/05/23 02:01:22;;;;;;;1.82;1.32;;;;;;;15.77;74.38;100295.73;1686488;83;21013;-42
2021/05/23 02:03:48;;;;;;;4.05;1.75;;;;;;;15.76;74.31;100290.85;1681435;83;21026;-42
2021/05/23 02:06:15;;;;;;;3.10;1.52;;;;;;;15.77;74.25;100299.30;1681813;83;21443;-44
2021/05/23 02:08:42;;;;;;;3.10;1.37;;;;;;;15.76;74.28;100299.41;1682893;83;21049;-43
2021/05/23 02:11:09;;;;;;;2.17;1.62;;;;;;;15.75;74.39;100298.56;1682528;83;21588;-42
2021/05/23 02:13:37;;;;;;;2.42;2.00;;;;;;;15.74;74.51;100304.05;1682393;83;21366;-43
2021/05/23 02:16:07;;;;;;;3.20;1.67;;;;;;;15.70;74.66;100296.75;1680167;83;21557;-41
2021/05/23 02:18:35;;;;;;;2.83;1.62;;;;;;;15.70;74.63;100309.31;1681585;83;21045;-46
2021/05/23 02:21:02;;;;;;;2.47;1.57;;;;;;;15.69;74.59;100299.52;1681550;83;21025;-45
2021/05/23 02:23:28;;;;;;;2.65;1.67;;;;;;;15.69;74.62;100301.74;1680310;83;21054;-46
2021/05/23 02:25:55;;;;;;;2.72;1.62;;;;;;;15.68;74.67;100304.55;1683376;83;21331;-44
2021/05/23 02:28:22;;;;;;;2.58;1.67;;;;;;;15.67;74.62;100309.04;1684104;83;21057;-44
2021/05/23 02:30:54;;;;;;;2.83;1.85;;;;;;;15.67;74.55;100306.84;1680263;83;21528;-44
2021/05/23 02:33:22;;;;;;;4.87;2.58;;;;;;;15.65;74.59;100309.69;1679748;83;21588;-45
2021/05/23 02:35:52;;;;;;;2.00;1.62;;;;;;;15.63;74.79;100312.13;1683791;83;21562;-44
2021/05/23 02:38:19;;;;;;;5.47;2.20;;;;;;;15.62;74.86;100326.53;1681221;83;21012;-43
2021/05/23 02:40:47;;;;;;;4.03;1.90;;;;;;;15.61;74.85;100328.37;1680455;83;21013;-44
2021/05/23 02:43:13;;;;;;;2.95;1.82;;;;;;;15.61;74.93;100327.52;1684953;83;21036;-43
2021/05/23 02:45:42;;;;;;;2.72;1.70;;;;;;;15.60;74.93;100332.05;1682680;83;21038;-43
2021/05/23 02:48:09;;;;;;;2.55;2.00;;;;;;;15.58;75.11;100330.82;1678538;84;21030;-42
2021/05/23 02:50:39;;;;;;;2.98;1.95;;;;;;;15.56;75.25;100335.46;1682776;84;21083;-45
2021/05/23 02:53:06;;;;;;;3.50;2.08;;;;;;;15.55;75.28;100330.23;1671627;83;21080;-46
2021/05/23 02:55:34;;;;;;;2.90;1.90;;;;;;;15.55;75.28;100328.89;1674144;83;21025;-46
2021/05/23 02:58:01;;;;;;;4.65;1.67;;;;;;;15.55;75.36;100324.36;1675332;83;21536;-44
2021/05/23 03:00:28;;;;;;;2.20;1.95;;;;;;;15.56;75.38;100324.71;1679430;83;20990;-43
2021/05/23 03:02:55;;;;;;;2.62;1.77;;;;;;;15.56;75.52;100322.52;1676436;83;21033;-45
2021/05/23 03:05:22;;;;;;;3.30;2.20;;;;;;;15.54;75.43;100329.84;1681463;83;21024;-42
2021/05/23 03:07:52;;;;;;;2.55;1.75;;;;;;;15.52;75.44;100335.83;1683628;83;21033;-39
2021/05/23 03:10:26;;;;;;;2.43;2.07;;;;;;;15.49;75.58;100334.25;1680967;83;21024;-43
2021/05/23 03:12:53;;;;;;;3.35;1.55;;;;;;;15.49;75.77;100330.71;1677529;83;21049;-42
2021/05/23 03:15:22;;;;;;;3.22;1.80;;;;;;;15.47;75.78;100328.17;1688195;83;21005;-41
2021/05/23 03:17:49;;;;;;;2.77;2.20;;;;;;;15.47;75.96;100328.17;1691248;83;21057;-42
2021/05/23 03:20:16;;;;;;;3.42;2.05;;;;;;;15.47;76.02;100328.63;1681512;83;21010;-42
2021/05/23 03:22:45;;;;;;;5.92;4.67;;;;;;;15.47;76.22;100329.52;1680533;84;21041;-42
2021/05/23 03:25:12;;;;;;;2.95;2.25;;;;;;;15.47;76.40;100332.20;1681973;83;21005;-42
2021/05/23 03:27:38;;;;;;;2.95;1.50;;;;;;;15.46;76.48;100329.13;1684306;83;21073;-43
2021/05/23 03:30:11;;;;;;;3.25;2.00;;;;;;;15.46;76.56;100335.84;1654838;85;21018;-44
2021/05/23 03:32:37;;;;;;;2.77;1.80;;;;;;;15.48;76.63;100331.70;1661275;84;20988;-45
2021/05/23 03:35:06;;;;;;;1.92;1.62;;;;;;;15.47;76.73;100327.29;1706864;82;21030;-46
2021/05/23 03:37:32;;;;;;;2.08;1.70;;;;;;;15.47;76.85;100338.03;1700209;83;21402;-44
2021/05/23 03:39:59;;;;;;;2.00;1.52;;;;;;;15.48;77.03;100333.05;1700392;82;21022;-40
2021/05/23 03:42:26;;;;;;;6.58;1.87;;;;;;;15.47;76.79;100332.20;1691762;82;21061;-44
2021/05/23 03:44:52;;;;;;;2.92;1.65;;;;;;;15.47;76.57;100334.89;1701847;82;21058;-44
2021/05/23 03:47:19;;;;;;;2.37;1.57;;;;;;;15.47;76.60;100328.63;1696119;82;21013;-47
2021/05/23 03:49:46;;;;;;;4.03;1.90;;;;;;;15.47;76.67;100333.55;1704072;82;21505;-44
2021/05/23 03:52:14;;;;;;;3.15;1.90;;;;;;;15.49;76.88;100341.46;1701036;82;21037;-43
2021/05/23 03:54:41;;;;;;;3.08;1.70;;;;;;;15.49;76.83;100349.52;1697882;82;21074;-42
2021/05/23 03:57:08;;;;;;;2.22;1.92;;;;;;;15.50;76.90;100348.06;1702473;82;20986;-48
2021/05/23 03:59:35;;;;;;;4.15;2.12;;;;;;;15.51;77.10;100357.83;1701628;82;21069;-46
2021/05/23 04:02:02;;;;;;;5.33;1.92;;;;;;;15.52;77.23;100358.20;1697578;82;21079;-43
2021/05/23 04:04:45;;;;;;;2.52;1.85;;;;;;;15.54;77.38;100362.94;1699560;83;22126;-42
2021/05/23 04:06:57;;;;;;;2.25;1.90;;;;;;;15.56;77.38;100365.52;1697721;82;21016;-46
2021/05/23 04:09:25;;;;;;;4.50;2.55;;;;;;;15.57;77.35;100368.09;1675086;83;21081;-46
2021/05/23 04:11:51;;;;;;;4.03;2.77;;;;;;;15.58;77.29;100365.76;1698749;82;21763;-42
2021/05/23 04:14:18;;;;;;;1.72;1.62;;;;;;;15.59;77.15;100370.64;1699565;82;21010;-44
2021/05/23 04:16:46;;;;;;;4.05;2.02;;;;;;;15.60;77.04;100377.73;1699241;82;21060;-44
2021/05/23 04:19:15;;;;;;;2.87;2.15;;;;;;;15.62;77.07;100381.62;1699155;82;21025;-44
2021/05/23 04:21:42;;;;;;;5.15;2.65;;;;;;;15.63;77.08;100380.17;1699099;82;21057;-42
2021/05/23 04:24:09;;;;;;;3.60;2.35;;;;;;;15.67;77.19;100388.83;1670161;84;21035;-44
2021/05/23 04:26:37;;;;;;;3.45;1.85;;;;;;;15.68;77.23;100384.68;1699900;82;21022;-46
2021/05/23 04:29:04;;;;;;;3.08;1.90;;;;;;;15.69;77.47;100391.78;1694243;82;21043;-41
2021/05/23 04:31:30;;;;;;;2.70;2.25;;;;;;;15.69;77.50;100393.13;1701470;82;21837;-43
2021/05/23 04:33:56;;;;;;;4.60;1.80;;;;;;;15.74;77.56;100400.83;1702710;82;21010;-48
2021/05/23 04:36:23;;;;;;;2.45;1.70;;;;;;;15.76;77.56;100406.44;1663811;84;21029;-46
2021/05/23 04:38:49;;;;;;;2.00;1.50;;;;;;;15.77;77.43;100410.86;1675224;83;21590;-40
2021/05/23 04:41:16;;;;;;;4.05;2.00;;;;;;;15.79;77.07;100414.25;1693309;83;21030;-42
2021/05/23 04:43:42;;;;;;;2.17;1.80;;;;;;;15.83;76.68;100408.15;1698037;83;21030;-42
2021/05/23 04:46:09;;;;;;;2.42;1.77;;;;;;;15.87;76.40;100404.21;1695190;83;21094;-42
2021/05/23 04:48:36;;;;;;;1.72;1.40;;;;;;;15.90;75.91;100408.48;1695760;82;21002;-45
2021/05/23 04:51:02;;;;;;;2.72;1.47;;;;;;;15.92;75.74;100404.69;1699183;82;21523;-45
2021/05/23 04:53:29;;;;;;;3.20;1.62;;;;;;;15.95;75.44;100403.58;1666078;83;20988;-44
2021/05/23 04:55:56;;;;;;;4.50;1.85;;;;;;;16.00;75.39;100407.63;1683618;82;21058;-51
2021/05/23 04:58:22;;;;;;;2.20;1.65;;;;;;;16.07;75.22;100414.67;1693445;83;21070;-44
2021/05/23 05:00:49;;;;;;;1.62;1.35;;;;;;;16.10;75.02;100414.91;1695606;82;21011;-44
2021/05/23 05:03:15;;;;;;;1.92;1.40;;;;;;;16.15;74.87;100421.64;1695574;82;21022;-46
2021/05/23 05:05:42;;;;;;;1.98;1.45;;;;;;;16.17;74.46;100418.31;1696797;83;21010;-46
2021/05/23 05:08:08;;;;;;;3.85;1.37;;;;;;;16.20;74.02;100411.82;1695947;83;20976;-45
2021/05/23 05:10:35;;;;;;;2.00;1.35;;;;;;;16.17;73.42;100413.42;1685360;83;21053;-45
2021/05/23 05:13:02;;;;;;;2.50;1.17;;;;;;;16.17;73.18;100414.28;1686028;83;21516;-45
2021/05/23 05:15:30;;;;;;;1.42;1.30;;;;;;;16.15;73.17;100416.73;1699322;83;21023;-47
2021/05/23 05:17:58;;;;;;;1.95;1.20;;;;;;;16.15;72.79;100410.89;1699589;83;21006;-45
2021/05/23 05:20:26;;;;;;;3.40;1.30;;;;;;;16.16;72.15;100410.39;1694546;83;21058;-48
2021/05/23 05:22:53;;;;;;;2.83;1.22;;;;;;;16.18;72.04;100410.63;1701079;83;20998;-47
2021/05/23 05:25:20;;;;;;;1.52;1.40;;;;;;;16.19;71.79;100416.35;1692256;83;21058;-46
2021/05/23 05:27:47;;;;;;;3.45;1.47;;;;;;;16.20;71.67;100404.62;1689951;83;21032;-41
2021/05/23 05:30:17;;;;;;;2.40;1.25;;;;;;;16.25;71.69;100412.30;1698857;82;21041;-44
2021/05/23 05:32:43;;;;;;;2.37;1.62;;;;;;;16.32;71.71;100413.99;1687706;83;21022;-47
2021/05/23 05:35:11;;;;;;;2.40;1.52;;;;;;;16.39;71.75;100417.88;1699198;82;21109;-45
2021/05/23 05:37:38;;;;;;;1.98;1.05;;;;;;;16.44;71.24;100411.62;1697158;82;21054;-48
2021/05/23 05:40:06;;;;;;;2.15;1.42;;;;;;;16.46;70.45;100411.01;1705844;82;21522;-48
2021/05/23 05:42:32;;;;;;;2.05;1.12;;;;;;;16.47;69.83;100420.78;1668052;84;21496;-40
2021/05/23 05:44:58;;;;;;;2.60;1.20;;;;;;;16.50;69.63;100421.00;1697881;82;21002;-48
2021/05/23 05:47:26;;;;;;;2.02;1.12;;;;;;;16.52;69.10;100417.70;1698020;82;21030;-45
2021/05/23 05:49:53;;;;;;;2.42;1.55;;;;;;;16.53;68.16;100416.23;1686648;82;21071;-46
2021/05/23 05:52:20;;;;;;;2.22;1.50;;;;;;;16.56;68.13;100416.47;1703180;82;20998;-48
2021/05/23 05:54:47;;;;;;;1.67;0.95;;;;;;;16.59;67.21;100417.55;1697143;82;20998;-44
2021/05/23 05:57:13;;;;;;;1.00;0.90;;;;;;;16.62;66.78;100419.97;1700701;82;21591;-44
2021/05/23 05:59:40;;;;;;;2.87;1.37;;;;;;;16.65;66.41;100426.44;1691432;83;21091;-44
2021/05/23 06:02:07;;;;;;;2.62;1.00;;;;;;;16.66;66.00;100424.13;1698822;83;21078;-47
2021/05/23 06:04:33;;;;;;;1.55;1.20;;;;;;;16.68;65.50;100426.17;1703484;82;21006;-41
2021/05/23 06:07:00;;;;;;;1.27;0.75;;;;;;;16.70;65.14;100429.59;1703923;82;21002;-41
2021/05/23 06:09:28;;;;;;;2.27;1.40;;;;;;;16.76;64.97;100432.28;1704137;82;20998;-44
2021/05/23 06:11:54;;;;;;;1.65;0.82;;;;;;;16.80;64.33;100435.93;1698323;82;20978;-46
2021/05/23 06:14:20;;;;;;;2.25;1.22;;;;;;;16.84;63.94;100437.89;1704173;82;21034;-48
2021/05/23 06:16:48;;;;;;;3.10;1.05;;;;;;;16.89;63.35;100437.50;1700722;82;21038;-45
2021/05/23 06:19:14;;;;;;;1.30;1.05;;;;;;;16.92;63.47;100446.16;1704134;82;20986;-44
2021/05/23 06:21:41;;;;;;;1.27;1.00;;;;;;;16.97;63.41;100449.31;1702483;82;21600;-44
2021/05/23 06:24:10;;;;;;;0.78;0.72;;;;;;;17.04;62.05;100449.65;1699376;82;21512;-44
2021/05/23 06:26:37;;;;;;;3.95;1.32;;;;;;;17.09;61.60;100451.45;1697858;82;21079;-42
2021/05/23 06:29:04;;;;;;;1.85;0.90;;;;;;;17.12;61.84;100443.09;1699090;82;21042;-46
2021/05/23 06:31:32;;;;;;;1.77;0.95;;;;;;;17.20;61.65;100447.82;1700096;82;21006;-42
2021/05/23 06:33:59;;;;;;;2.52;0.90;;;;;;;17.24;60.97;100438.00;1702090;82;21058;-44
2021/05/23 06:36:27;;;;;;;3.58;1.65;;;;;;;17.32;61.44;100438.67;1700855;82;20995;-50
2021/05/23 06:38:54;;;;;;;3.15;1.20;;;;;;;17.37;61.32;100442.31;1699947;82;20996;-43
2021/05/23 06:41:20;;;;;;;2.00;1.10;;;;;;;17.43;60.54;100443.95;1700890;82;21006;-47
2021/05/23 06:43:48;;;;;;;1.65;1.25;;;;;;;17.46;60.78;100443.72;1700693;82;21564;-52
2021/05/23 06:46:14;;;;;;;2.10;1.10;;;;;;;17.51;59.76;100445.51;1699780;82;21042;-52
2021/05/23 06:48:41;;;;;;;2.20;1.22;;;;;;;17.53;59.94;100444.85;1701599;82;21002;-54
2021/05/23 06:51:08;;;;;;;3.05;0.90;;;;;;;17.53;59.42;100446.20;1694288;82;21002;-50
2021/05/23 06:53:35;;;;;;;1.72;1.10;;;;;;;17.55;59.79;100453.31;1686595;82;21958;-49
2021/05/23 06:56:01;;;;;;;1.30;1.00;;;;;;;17.57;60.82;100450.00;1690987;82;21050;-46
2021/05/23 06:58:27;;;;;;;1.62;1.17;;;;;;;17.60;59.94;100456.46;1687419;82;21061;-50
2021/05/23 07:00:54;;;;;;;3.02;1.20;;;;;;;17.58;59.35;100457.08;1699565;82;21008;-46
2021/05/23 07:03:22;;;;;;;2.05;1.12;;;;;;;17.59;59.36;100456.08;1687027;82;21579;-44
2021/05/23 07:05:49;;;;;;;1.67;1.15;;;;;;;17.63;59.43;100454.84;1690121;82;21529;-45
2021/05/23 07:08:18;;;;;;;2.05;1.32;;;;;;;17.64;59.02;100463.27;1702984;82;21459;-42
2021/05/23 07:10:45;;;;;;;1.47;1.05;;;;;;;17.63;59.42;100457.53;1697576;82;21036;-41
2021/05/23 07:13:11;;;;;;;1.82;0.85;;;;;;;17.64;58.63;100460.57;1697829;82;20992;-45
2021/05/23 07:15:38;;;;;;;2.05;0.80;;;;;;;17.65;57.82;100470.39;1703379;82;21042;-47
2021/05/23 07:18:05;;;;;;;2.12;1.20;;;;;;;17.65;58.32;100461.80;1692938;82;21377;-41
2021/05/23 07:20:31;;;;;;;2.92;1.00;;;;;;;17.72;58.41;100456.23;1693224;82;21015;-42
2021/05/23 07:22:58;;;;;;;3.17;0.98;;;;;;;17.81;57.35;100451.88;1694059;82;21035;-41
2021/05/23 07:25:25;;;;;;;0.88;0.72;;;;;;;17.87;56.16;100456.73;1703526;82;21057;-42
2021/05/23 07:27:51;;;;;;;2.33;0.90;;;;;;;17.94;56.33;100451.63;1705662;82;21010;-43
2021/05/23 07:30:19;;;;;;;1.62;1.30;;;;;;;18.02;56.99;100457.70;1703801;82;21097;-44
2021/05/23 07:32:47;;;;;;;2.27;1.10;;;;;;;18.08;56.68;100449.05;1684945;83;21033;-45
2021/05/23 07:35:13;;;;;;;1.50;0.78;;;;;;;18.13;55.39;100457.58;1678939;83;21041;-44
2021/05/23 07:37:42;;;;;;;1.35;0.88;;;;;;;18.18;53.05;100460.70;1676362;83;21010;-44
2021/05/23 07:40:10;;;;;;;1.42;0.93;;;;;;;18.21;52.24;100455.53;1676112;83;21544;-45
2021/05/23 07:42:37;;;;;;;1.55;1.12;;;;;;;18.23;52.88;100455.75;1679717;83;21061;-46
2021/05/23 07:45:05;;;;;;;1.02;0.70;;;;;;;18.29;52.92;100449.77;1673165;83;21053;-41
2021/05/23 07:47:32;;;;;;;2.02;1.10;;;;;;;18.34;52.55;100449.36;1680933;83;21041;-42
2021/05/23 07:49:59;;;;;;;0.95;0.90;;;;;;;18.37;53.41;100458.05;1682744;83;21596;-41
2021/05/23 07:52:25;;;;;;;1.17;0.90;;;;;;;18.38;53.98;100454.34;1678717;83;21505;-42
2021/05/23 07:54:52;;;;;;;1.05;0.82;;;;;;;18.37;54.09;100451.30;1682474;83;21035;-45
2021/05/23 07:57:19;;;;;;;1.95;1.12;;;;;;;18.41;54.59;100454.55;1679270;83;20994;-42
2021/05/23 07:59:46;;;;;;;1.10;1.00;;;;;;;18.46;53.66;100447.39;1684972;83;21062;-42
2021/05/23 08:02:13;;;;;;;0.90;0.70;;;;;;;18.47;51.42;100451.78;1679293;83;21575;-43
2021/05/23 08:04:39;;;;;;;1.07;0.68;;;;;;;18.49;50.40;100453.85;1681141;83;21057;-44
2021/05/23 08:07:06;;;;;;;2.30;1.55;;;;;;;18.54;50.16;100451.58;1672427;83;21041;-42
2021/05/23 08:09:32;;;;;;;0.98;0.70;;;;;;;18.60;49.91;100450.52;1675901;83;20994;-43
2021/05/23 08:11:59;;;;;;;2.37;1.72;;;;;;;18.70;49.65;100453.73;1681212;83;20995;-43
2021/05/23 08:14:25;;;;;;;1.82;1.10;;;;;;;18.79;50.41;100456.43;1669676;83;21548;-42
2021/05/23 08:16:52;;;;;;;1.20;0.65;;;;;;;18.89;50.94;100456.93;1670185;83;21022;-42
2021/05/23 08:19:19;;;;;;;2.25;1.07;;;;;;;18.94;50.13;100460.05;1668616;83;21069;-42
2021/05/23 08:21:46;;;;;;;1.55;0.80;;;;;;;18.94;49.85;100469.00;1671758;83;21034;-41
2021/05/23 08:24:14;;;;;;;1.30;0.85;;;;;;;18.91;49.22;100466.59;1676580;83;21006;-41
2021/05/23 08:26:40;;;;;;;3.42;0.85;;;;;;;18.86;49.14;100466.68;1677927;83;21017;-43
2021/05/23 08:29:07;;;;;;;1.77;0.80;;;;;;;18.85;48.24;100467.19;1676435;83;21061;-44
2021/05/23 08:31:35;;;;;;;1.57;1.05;;;;;;;18.88;47.95;100467.39;1686848;82;21054;-41
2021/05/23 08:34:02;;;;;;;1.90;1.02;;;;;;;18.94;48.21;100466.30;1681740;83;21046;-44
2021/05/23 08:36:29;;;;;;;4.08;1.75;;;;;;;19.02;48.47;100466.45;1688730;82;21054;-42
2021/05/23 08:38:55;;;;;;;2.90;2.10;;;;;;;19.09;48.13;100472.11;1686827;82;21082;-41
2021/05/23 08:41:23;;;;;;;2.00;1.27;;;;;;;19.14;47.39;100472.53;1690619;82;21022;-43
2021/05/23 08:43:52;;;;;;;1.12;0.72;;;;;;;19.18;46.79;100473.11;1690476;82;21574;-42
2021/05/23 08:46:18;;;;;;;1.75;0.72;;;;;;;19.18;46.73;100482.06;1689004;82;21034;-42
2021/05/23 08:48:46;;;;;;;5.55;1.10;;;;;;;19.16;46.15;100476.45;1687158;82;21009;-47
2021/05/23 08:51:13;;;;;;;1.25;0.93;;;;;;;19.18;46.85;100485.27;1695862;82;21043;-46
2021/05/23 08:53:39;;;;;;;2.05;0.98;;;;;;;19.22;48.13;100486.66;1691615;82;21071;-48
2021/05/23 08:56:07;;;;;;;1.27;1.12;;;;;;;19.33;48.18;100482.97;1694029;82;21010;-48
2021/05/23 08:58:33;;;;;;;2.90;1.20;;;;;;;19.42;46.24;100480.71;1688714;82;21058;-43
2021/05/23 09:01:00;;;;;;;2.40;0.90;;;;;;;19.45;46.42;100481.77;1699608;82;21020;-45
2021/05/23 09:03:26;;;;;;;1.10;0.62;;;;;;;19.45;46.04;100484.47;1695505;82;21436;-47
2021/05/23 09:05:58;;;;;;;2.58;0.88;;;;;;;19.39;45.62;100480.51;1692953;82;21101;-47
2021/05/23 09:08:31;;;;;;;1.60;0.75;;;;;;;19.34;45.63;100481.95;1691569;82;21553;-45
2021/05/23 09:10:59;;;;;;;1.65;1.07;;;;;;;19.28;46.07;100477.99;1702183;82;21034;-42
2021/05/23 09:13:31;;;;;;;4.05;1.00;;;;;;;19.28;46.98;100471.70;1696430;82;20978;-42
2021/05/23 09:16:08;;;;;;;2.58;0.82;;;;;;;19.36;47.40;100474.05;1700282;82;21038;-48
2021/05/23 09:18:54;;;;;;;1.10;0.70;;;;;;;19.46;46.18;100470.81;1693813;82;20982;-44
2021/05/23 09:21:27;;;;;;;1.80;0.95;;;;;;;19.55;44.97;100460.10;1635065;85;21844;-46
2021/05/23 09:24:01;;;;;;;1.00;0.78;;;;;;;19.61;44.98;100460.37;1666603;84;21048;-45
2021/05/23 09:26:33;;;;;;;1.27;1.00;;;;;;;19.69;45.17;100468.28;1618437;86;21092;-46
2021/05/23 09:29:06;;;;;;;1.47;0.72;;;;;;;19.74;44.02;100464.63;1697562;82;21556;-42
2021/05/23 09:31:33;;;;;;;2.58;0.82;;;;;;;19.79;42.97;100467.73;1698625;82;20983;-45
2021/05/23 09:34:00;;;;;;;1.25;0.70;;;;;;;19.81;42.18;100467.94;1696502;82;21066;-47
2021/05/23 09:36:27;;;;;;;1.27;0.50;;;;;;;19.85;42.91;100463.91;1693435;82;21961;-45
2021/05/23 09:38:59;;;;;;;1.10;0.68;;;;;;;19.92;41.86;100460.63;1691865;82;21469;-43
2021/05/23 09:41:38;;;;;;;1.10;0.70;;;;;;;20.00;42.04;100470.19;1699965;82;21943;-47
2021/05/23 09:44:20;;;;;;;1.95;0.90;;;;;;;20.08;42.33;100468.44;1687188;82;20997;-42
2021/05/23 09:47:09;;;;;;;1.37;0.60;;;;;;;20.18;41.55;100456.17;1694299;82;21058;-41
2021/05/23 09:49:41;;;;;;;3.42;1.10;;;;;;;20.27;41.60;100454.42;1685352;82;21025;-45
2021/05/23 09:52:11;;;;;;;0.75;0.55;;;;;;;20.35;39.81;100466.69;1698148;82;21054;-41
2021/05/23 09:54:52;;;;;;;1.65;0.72;;;;;;;20.37;38.81;100455.20;1695123;82;21035;-43
2021/05/23 09:57:23;;;;;;;0.65;0.65;;;;;;;20.38;38.40;100451.98;1689249;82;21870;-46
2021/05/23 10:00:07;;;;;;;3.33;0.82;;;;;;;20.40;39.57;100452.18;1694698;82;21091;-42
2021/05/23 10:02:56;;;;;;;0.62;0.30;;;;;;;20.47;39.61;100456.49;1696353;82;21058;-43
2021/05/23 10:05:23;;;;;;;2.92;0.93;;;;;;;20.60;40.46;100447.50;1691119;82;21023;-41
2021/05/23 10:07:49;;;;;;;1.32;0.78;;;;;;;20.70;37.28;100440.65;1683822;83;21850;-40
2021/05/23 10:10:16;;;;;;;2.12;0.62;;;;;;;20.74;37.64;100451.53;1685172;83;21001;-41
2021/05/23 10:12:43;;;;;;;1.47;0.60;;;;;;;20.77;37.12;100440.89;1694661;82;21519;-46
2021/05/23 10:15:13;;;;;;;1.57;0.88;;;;;;;20.79;37.62;100447.84;1691219;82;21037;-42
2021/05/23 10:17:41;;;;;;;2.05;1.00;;;;;;;20.77;38.27;100449.86;1689953;82;21548;-41
2021/05/23 10:20:10;;;;;;;0.80;0.65;;;;;;;20.73;38.97;100464.20;1684924;82;20982;-44
2021/05/23 10:22:38;;;;;;;1.37;0.70;;;;;;;20.76;38.71;100463.03;1684746;82;21105;-44
2021/05/23 10:25:10;;;;;;;1.32;0.55;;;;;;;20.81;38.22;100459.35;1688308;82;21078;-44
2021/05/23 10:27:39;;;;;;;1.55;0.98;;;;;;;20.85;36.17;100455.34;1694367;82;21030;-47
2021/05/23 10:30:08;;;;;;;1.32;0.50;;;;;;;20.87;37.00;100455.19;1697466;82;21041;-48
2021/05/23 10:32:37;;;;;;;2.55;0.62;;;;;;;20.84;37.36;100468.55;1698836;82;21022;-46
2021/05/23 10:35:26;;;;;;;2.58;0.93;;;;;;;20.74;38.37;100469.98;1663295;84;21099;-43
2021/05/23 10:37:54;;;;;;;1.20;0.80;;;;;;;20.73;38.77;100459.30;1673648;83;20997;-44
2021/05/23 10:40:26;;;;;;;1.57;0.75;;;;;;;20.77;38.88;100463.91;1680745;83;21046;-43
2021/05/23 10:42:56;;;;;;;2.52;1.40;;;;;;;20.79;38.11;100463.23;1681817;83;21010;-43
2021/05/23 10:45:30;;;;;;;1.60;0.80;;;;;;;20.80;37.94;100455.47;1695943;82;21038;-44
2021/05/23 10:47:57;;;;;;;1.62;1.00;;;;;;;20.84;37.32;100448.70;1699072;82;20974;-44
2021/05/23 10:50:34;;;;;;;3.27;1.35;;;;;;;20.89;37.78;100452.67;1699224;82;21045;-43
2021/05/23 10:53:01;;;;;;;1.27;0.85;;;;;;;20.93;38.63;100454.03;1695950;82;21568;-42
2021/05/23 10:55:28;;;;;;;1.02;0.70;;;;;;;20.92;38.79;100455.57;1697367;82;21002;-48
2021/05/23 10:57:56;;;;;;;1.35;0.80;;;;;;;20.86;38.17;100452.96;1696470;82;21058;-46
2021/05/23 11:00:39;;;;;;;2.22;0.93;;;;;;;20.79;38.49;100453.27;1689975;82;21149;-47
2021/05/23 11:03:13;;;;;;;1.85;1.00;;;;;;;20.68;38.83;100457.05;1699332;82;21030;-45
2021/05/23 11:05:41;;;;;;;3.65;1.80;;;;;;;20.61;38.95;100461.89;1689110;82;20998;-49
2021/05/23 11:08:11;;;;;;;1.47;1.02;;;;;;;20.57;38.66;100453.74;1698748;82;21034;-46
2021/05/23 11:10:47;;;;;;;4.75;1.30;;;;;;;20.53;37.68;100449.94;1705181;82;21014;-44
2021/05/23 11:13:30;;;;;;;1.57;0.72;;;;;;;20.57;37.58;100456.45;1696641;82;20982;-44
2021/05/23 11:16:19;;;;;;;4.17;0.98;;;;;;;20.63;38.36;100455.81;1694592;82;21046;-47
2021/05/23 11:18:46;;;;;;;2.00;0.70;;;;;;;20.70;38.08;100448.77;1660637;84;21435;-44
2021/05/23 11:21:15;;;;;;;1.20;0.90;;;;;;;20.75;36.64;100436.97;1699185;82;21010;-47
2021/05/23 11:23:57;;;;;;;2.25;0.93;;;;;;;20.82;36.41;100438.05;1697840;82;21002;-44
2021/05/23 11:26:26;;;;;;;2.57;1.53;;;;;;;20.90;36.22;100435.91;1700731;82;21046;-45
2021/05/23 11:28:54;;;;;;;2.70;1.30;;;;;;;20.94;36.96;100434.08;1706314;82;22158;-43
2021/05/23 11:31:36;;;;;;;1.17;0.75;;;;;;;20.89;36.75;100441.83;1699051;82;21885;-45